sensor_id;sensor_type;location;lat;lon;timestamp;pressure;altitude;pressure_sealevel;temperature;humidity
85760;BME280;76206;39.770;2.710;2024-03-25T07:19:43;100331.67;;;16.35;48.70
85760;BME280;76206;39.770;2.710;2024-03-25T07:22:10;100325.09;;;16.47;49.69
85760;BME280;76206;39.770;2.710;2024-03-25T07:24:35;100317.20;;;16.62;50.20
85760;BME280;76206;39.770;2.710;2024-03-25T07:27:01;100308.77;;;16.76;50.36
85760;BME280;76206;39.770;2.710;2024-03-25T07:29:26;100305.70;;;16.92;50.53
85760;BME280;76206;39.770;2.710;2024-03-25T07:31:52;100303.50;;;17.08;50.50
85760;BME280;76206;39.770;2.710;2024-03-25T07:34:18;100305.47;;;17.24;50.38
85760;BME280;76206;39.770;2.710;2024-03-25T07:36:44;100297.77;;;17.39;50.24
85760;BME280;76206;39.770;2.710;2024-03-25T07:39:09;100289.70;;;17.55;50.12
85760;BME280;76206;39.770;2.710;2024-03-25T07:41:39;100289.27;;;17.72;49.99
85760;BME280;76206;39.770;2.710;2024-03-25T07:44:04;100290.42;;;17.96;49.70
85760;BME280;76206;39.770;2.710;2024-03-25T07:46:30;100298.77;;;18.18;49.69
85760;BME280;76206;39.770;2.710;2024-03-25T07:48:55;100305.16;;;18.40;48.92
85760;BME280;76206;39.770;2.710;2024-03-25T07:51:21;100302.71;;;18.67;49.02
85760;BME280;76206;39.770;2.710;2024-03-25T07:53:47;100295.77;;;18.95;48.46
85760;BME280;76206;39.770;2.710;2024-03-25T07:56:13;100299.09;;;19.19;48.25
85760;BME280;76206;39.770;2.710;2024-03-25T07:58:40;100292.52;;;19.42;47.95
85760;BME280;76206;39.770;2.710;2024-03-25T08:01:05;100287.73;;;19.64;47.84
85760;BME280;76206;39.770;2.710;2024-03-25T08:03:31;100282.99;;;19.85;47.72
85760;BME280;76206;39.770;2.710;2024-03-25T08:05:57;100289.27;;;20.07;47.81
85760;BME280;76206;39.770;2.710;2024-03-25T08:08:22;100288.02;;;20.26;47.38
85760;BME280;76206;39.770;2.710;2024-03-25T08:10:48;100279.27;;;20.43;47.35
85760;BME280;76206;39.770;2.710;2024-03-25T08:13:13;100272.55;;;20.58;46.39
85760;BME280;76206;39.770;2.710;2024-03-25T08:15:39;100264.58;;;20.71;45.92
85760;BME280;76206;39.770;2.710;2024-03-25T08:18:05;100268.55;;;20.87;45.00
85760;BME280;76206;39.770;2.710;2024-03-25T08:20:31;100272.38;;;21.03;44.47
85760;BME280;76206;39.770;2.710;2024-03-25T08:22:57;100263.31;;;21.19;44.66
85760;BME280;76206;39.770;2.710;2024-03-25T08:25:22;100258.13;;;21.33;43.54
85760;BME280;76206;39.770;2.710;2024-03-25T08:27:48;100255.39;;;21.46;43.58
85760;BME280;76206;39.770;2.710;2024-03-25T08:30:13;100251.33;;;21.58;42.95
85760;BME280;76206;39.770;2.710;2024-03-25T08:32:39;100240.77;;;21.71;42.39
85760;BME280;76206;39.770;2.710;2024-03-25T08:35:05;100238.36;;;21.85;42.36
85760;BME280;76206;39.770;2.710;2024-03-25T08:37:31;100238.49;;;22.00;41.67
85760;BME280;76206;39.770;2.710;2024-03-25T08:39:56;100231.05;;;22.10;41.31
85760;BME280;76206;39.770;2.710;2024-03-25T08:42:22;100232.52;;;22.20;41.24
85760;BME280;76206;39.770;2.710;2024-03-25T08:44:48;100220.55;;;22.27;40.75
85760;BME280;76206;39.770;2.710;2024-03-25T08:47:14;100217.04;;;22.36;40.41
85760;BME280;76206;39.770;2.710;2024-03-25T08:49:39;100213.45;;;22.49;40.01
85760;BME280;76206;39.770;2.710;2024-03-25T08:52:05;100198.09;;;22.59;40.06
85760;BME280;76206;39.770;2.710;2024-03-25T08:54:31;100207.88;;;22.64;39.22
85760;BME280;76206;39.770;2.710;2024-03-25T08:56:56;100196.14;;;22.71;38.93
85760;BME280;76206;39.770;2.710;2024-03-25T08:59:22;100203.96;;;22.81;39.07
85760;BME280;76206;39.770;2.710;2024-03-25T09:01:47;100201.91;;;22.90;38.57
85760;BME280;76206;39.770;2.710;2024-03-25T09:04:13;100203.64;;;23.01;38.23
85760;BME280;76206;39.770;2.710;2024-03-25T09:06:42;100196.28;;;23.15;38.11
85760;BME280;76206;39.770;2.710;2024-03-25T09:09:08;100193.84;;;23.31;37.57
85760;BME280;76206;39.770;2.710;2024-03-25T09:11:52;100186.29;;;23.53;37.05
85760;BME280;76206;39.770;2.710;2024-03-25T09:14:19;100182.23;;;23.78;37.21
85760;BME280;76206;39.770;2.710;2024-03-25T09:16:45;100177.94;;;24.09;36.73
85760;BME280;76206;39.770;2.710;2024-03-25T09:19:10;100178.52;;;24.42;36.22
85760;BME280;76206;39.770;2.710;2024-03-25T09:21:36;100167.64;;;24.75;35.52
85760;BME280;76206;39.770;2.710;2024-03-25T09:24:03;100161.23;;;25.12;35.60
85760;BME280;76206;39.770;2.710;2024-03-25T09:26:28;100163.05;;;25.52;34.95
85760;BME280;76206;39.770;2.710;2024-03-25T09:28:55;100163.92;;;25.87;34.62
85760;BME280;76206;39.770;2.710;2024-03-25T09:31:20;100165.92;;;26.21;34.21
85760;BME280;76206;39.770;2.710;2024-03-25T09:33:46;100159.45;;;26.52;33.95
85760;BME280;76206;39.770;2.710;2024-03-25T09:36:12;100160.00;;;26.85;33.24
85760;BME280;76206;39.770;2.710;2024-03-25T09:38:37;100154.80;;;27.16;33.04
85760;BME280;76206;39.770;2.710;2024-03-25T09:41:03;100146.87;;;27.44;33.31
85760;BME280;76206;39.770;2.710;2024-03-25T09:43:44;100141.48;;;27.67;33.64
85760;BME280;76206;39.770;2.710;2024-03-25T09:46:13;100134.80;;;27.87;33.36
85760;BME280;76206;39.770;2.710;2024-03-25T09:48:43;100130.16;;;28.02;33.40
85760;BME280;76206;39.770;2.710;2024-03-25T09:51:12;100131.23;;;28.16;33.54
85760;BME280;76206;39.770;2.710;2024-03-25T09:53:37;100125.83;;;28.40;33.51
85760;BME280;76206;39.770;2.710;2024-03-25T09:56:04;100126.16;;;28.74;33.21
85760;BME280;76206;39.770;2.710;2024-03-25T09:58:31;100120.81;;;29.12;32.91
85760;BME280;76206;39.770;2.710;2024-03-25T10:00:57;100123.92;;;29.51;32.60
85760;BME280;76206;39.770;2.710;2024-03-25T10:03:23;100117.73;;;29.89;32.09
85760;BME280;76206;39.770;2.710;2024-03-25T10:05:52;100105.22;;;30.25;31.56
85760;BME280;76206;39.770;2.710;2024-03-25T10:08:21;100106.40;;;30.63;31.13
85760;BME280;76206;39.770;2.710;2024-03-25T10:10:47;100107.11;;;30.96;30.86
85760;BME280;76206;39.770;2.710;2024-03-25T10:13:16;100102.23;;;31.22;30.37
85760;BME280;76206;39.770;2.710;2024-03-25T10:15:42;100097.81;;;31.50;30.62
85760;BME280;76206;39.770;2.710;2024-03-25T10:18:07;100088.26;;;31.79;30.19
85760;BME280;76206;39.770;2.710;2024-03-25T10:20:34;100079.68;;;32.02;29.68
85760;BME280;76206;39.770;2.710;2024-03-25T10:23:15;100077.16;;;32.25;29.37
85760;BME280;76206;39.770;2.710;2024-03-25T10:25:41;100079.65;;;32.54;29.07
85760;BME280;76206;39.770;2.710;2024-03-25T10:28:10;100082.35;;;32.78;28.65
85760;BME280;76206;39.770;2.710;2024-03-25T10:30:39;100076.94;;;32.95;28.40
85760;BME280;76206;39.770;2.710;2024-03-25T10:33:08;100068.11;;;33.04;27.99
85760;BME280;76206;39.770;2.710;2024-03-25T10:35:35;100058.13;;;33.06;27.78
85760;BME280;76206;39.770;2.710;2024-03-25T10:38:05;100053.26;;;33.07;27.69
85760;BME280;76206;39.770;2.710;2024-03-25T10:40:35;100049.19;;;33.06;27.62
85760;BME280;76206;39.770;2.710;2024-03-25T10:43:11;100044.22;;;32.98;27.53
85760;BME280;76206;39.770;2.710;2024-03-25T10:45:41;100033.98;;;32.80;27.44
85760;BME280;76206;39.770;2.710;2024-03-25T10:48:33;100023.42;;;32.63;27.58
85760;BME280;76206;39.770;2.710;2024-03-25T10:51:01;100019.20;;;32.44;27.30
85760;BME280;76206;39.770;2.710;2024-03-25T10:53:29;100021.28;;;32.23;27.60
85760;BME280;76206;39.770;2.710;2024-03-25T10:55:56;100016.40;;;31.96;27.68
85760;BME280;76206;39.770;2.710;2024-03-25T10:58:22;100020.11;;;31.64;27.74
85760;BME280;76206;39.770;2.710;2024-03-25T11:00:49;100016.80;;;31.33;27.82
85760;BME280;76206;39.770;2.710;2024-03-25T11:03:16;100012.98;;;31.05;28.19
85760;BME280;76206;39.770;2.710;2024-03-25T11:05:42;100007.52;;;30.82;28.45
85760;BME280;76206;39.770;2.710;2024-03-25T11:08:14;100003.77;;;30.62;28.61
85760;BME280;76206;39.770;2.710;2024-03-25T11:10:49;100002.70;;;30.35;28.80
85760;BME280;76206;39.770;2.710;2024-03-25T11:13:18;99999.27;;;30.00;29.17
85760;BME280;76206;39.770;2.710;2024-03-25T11:15:45;99999.98;;;29.70;29.37
85760;BME280;76206;39.770;2.710;2024-03-25T11:18:15;100001.30;;;29.38;29.59
85760;BME280;76206;39.770;2.710;2024-03-25T11:20:41;99995.49;;;29.05;30.11
85760;BME280;76206;39.770;2.710;2024-03-25T11:23:11;99988.08;;;28.78;30.45
85760;BME280;76206;39.770;2.710;2024-03-25T11:25:38;99980.36;;;28.51;30.80
85760;BME280;76206;39.770;2.710;2024-03-25T11:28:04;99973.55;;;28.23;31.06
85760;BME280;76206;39.770;2.710;2024-03-25T11:30:30;99966.42;;;27.99;31.21
85760;BME280;76206;39.770;2.710;2024-03-25T11:32:57;99965.27;;;27.79;31.61
85760;BME280;76206;39.770;2.710;2024-03-25T11:35:23;99965.31;;;27.60;31.75
85760;BME280;76206;39.770;2.710;2024-03-25T11:37:49;99957.72;;;27.40;32.00
85760;BME280;76206;39.770;2.710;2024-03-25T11:40:18;99956.72;;;27.19;32.17
85760;BME280;76206;39.770;2.710;2024-03-25T11:42:45;99951.36;;;26.95;32.57
85760;BME280;76206;39.770;2.710;2024-03-25T11:45:18;99948.27;;;26.72;32.85
85760;BME280;76206;39.770;2.710;2024-03-25T11:47:44;99941.69;;;26.52;32.90
85760;BME280;76206;39.770;2.710;2024-03-25T11:50:13;99930.56;;;26.36;33.29
85760;BME280;76206;39.770;2.710;2024-03-25T11:52:39;99915.47;;;26.21;33.54
85760;BME280;76206;39.770;2.710;2024-03-25T11:55:04;99913.16;;;26.09;33.44
85760;BME280;76206;39.770;2.710;2024-03-25T11:57:30;99906.91;;;25.98;33.64
85760;BME280;76206;39.770;2.710;2024-03-25T11:59:57;99904.30;;;25.92;33.80
85760;BME280;76206;39.770;2.710;2024-03-25T12:02:23;99898.61;;;25.87;33.86
85760;BME280;76206;39.770;2.710;2024-03-25T12:04:50;99898.77;;;25.82;34.25
85760;BME280;76206;39.770;2.710;2024-03-25T12:07:15;99889.63;;;25.77;34.35
85760;BME280;76206;39.770;2.710;2024-03-25T12:09:41;99884.98;;;25.70;34.48
85760;BME280;76206;39.770;2.710;2024-03-25T12:12:26;99884.17;;;25.62;34.45
85760;BME280;76206;39.770;2.710;2024-03-25T12:14:53;99884.78;;;25.57;34.79
85760;BME280;76206;39.770;2.710;2024-03-25T12:17:19;99878.46;;;25.51;34.73
85760;BME280;76206;39.770;2.710;2024-03-25T12:20:07;99872.71;;;25.45;34.91
85760;BME280;76206;39.770;2.710;2024-03-25T12:22:34;99870.99;;;25.36;34.97
85760;BME280;76206;39.770;2.710;2024-03-25T12:25:02;99866.30;;;25.26;35.10
85760;BME280;76206;39.770;2.710;2024-03-25T12:27:38;99863.73;;;25.13;35.26
85760;BME280;76206;39.770;2.710;2024-03-25T12:30:10;99855.40;;;25.03;35.48
85760;BME280;76206;39.770;2.710;2024-03-25T12:32:42;99847.90;;;24.92;35.43
85760;BME280;76206;39.770;2.710;2024-03-25T12:35:14;99848.74;;;24.81;35.75
85760;BME280;76206;39.770;2.710;2024-03-25T12:37:44;99844.89;;;24.71;35.42
85760;BME280;76206;39.770;2.710;2024-03-25T12:40:12;99842.42;;;24.62;35.30
85760;BME280;76206;39.770;2.710;2024-03-25T12:42:38;99837.14;;;24.54;35.05
85760;BME280;76206;39.770;2.710;2024-03-25T12:45:05;99828.26;;;24.45;35.21
85760;BME280;76206;39.770;2.710;2024-03-25T12:47:31;99825.27;;;24.34;35.37
85760;BME280;76206;39.770;2.710;2024-03-25T12:49:57;99830.20;;;24.25;35.08
85760;BME280;76206;39.770;2.710;2024-03-25T12:52:23;99826.48;;;24.18;35.31
85760;BME280;76206;39.770;2.710;2024-03-25T12:54:48;99823.65;;;24.11;35.42
85760;BME280;76206;39.770;2.710;2024-03-25T12:57:14;99822.66;;;24.04;35.29
85760;BME280;76206;39.770;2.710;2024-03-25T12:59:39;99820.81;;;23.95;35.43
85760;BME280;76206;39.770;2.710;2024-03-25T13:02:08;99820.63;;;23.86;35.39
85760;BME280;76206;39.770;2.710;2024-03-25T13:04:34;99820.52;;;23.79;35.52
85760;BME280;76206;39.770;2.710;2024-03-25T13:07:02;99816.69;;;23.73;35.66
85760;BME280;76206;39.770;2.710;2024-03-25T13:09:28;99820.55;;;23.65;35.61
85760;BME280;76206;39.770;2.710;2024-03-25T13:11:56;99820.99;;;23.58;35.68
85760;BME280;76206;39.770;2.710;2024-03-25T13:14:21;99815.79;;;23.49;35.93
85760;BME280;76206;39.770;2.710;2024-03-25T13:16:47;99817.32;;;23.40;36.10
85760;BME280;76206;39.770;2.710;2024-03-25T13:19:13;99809.63;;;23.31;36.20
85760;BME280;76206;39.770;2.710;2024-03-25T13:21:39;99803.88;;;23.22;36.33
85760;BME280;76206;39.770;2.710;2024-03-25T13:24:05;99796.04;;;23.11;36.31
85760;BME280;76206;39.770;2.710;2024-03-25T13:26:31;99790.45;;;22.94;36.49
85760;BME280;76206;39.770;2.710;2024-03-25T13:28:56;99792.76;;;22.64;36.75
85760;BME280;76206;39.770;2.710;2024-03-25T13:31:23;99784.13;;;22.30;36.85
85760;BME280;76206;39.770;2.710;2024-03-25T13:33:49;99776.24;;;21.94;37.20
85760;BME280;76206;39.770;2.710;2024-03-25T13:36:14;99771.36;;;21.59;37.56
85760;BME280;76206;39.770;2.710;2024-03-25T13:38:39;99767.66;;;21.31;37.62
85760;BME280;76206;39.770;2.710;2024-03-25T13:41:05;99756.14;;;21.00;37.98
85760;BME280;76206;39.770;2.710;2024-03-25T13:43:31;99749.48;;;20.73;38.29
85760;BME280;76206;39.770;2.710;2024-03-25T13:45:57;99742.16;;;20.45;38.61
85760;BME280;76206;39.770;2.710;2024-03-25T13:48:22;99736.19;;;20.17;39.02
85760;BME280;76206;39.770;2.710;2024-03-25T13:50:48;99738.94;;;19.97;39.26
85760;BME280;76206;39.770;2.710;2024-03-25T13:53:13;99735.33;;;19.75;39.48
85760;BME280;76206;39.770;2.710;2024-03-25T13:55:39;99738.38;;;19.52;40.06
85760;BME280;76206;39.770;2.710;2024-03-25T13:58:04;99734.27;;;19.32;40.40
85760;BME280;76206;39.770;2.710;2024-03-25T14:00:33;99729.72;;;19.15;40.51
85760;BME280;76206;39.770;2.710;2024-03-25T14:03:01;99729.25;;;18.97;40.79
85760;BME280;76206;39.770;2.710;2024-03-25T14:05:27;99734.85;;;18.83;41.34
85760;BME280;76206;39.770;2.710;2024-03-25T14:07:52;99733.13;;;18.71;41.42
85760;BME280;76206;39.770;2.710;2024-03-25T14:10:18;99733.05;;;18.58;41.98
85760;BME280;76206;39.770;2.710;2024-03-25T14:12:43;99732.48;;;18.46;42.11
85760;BME280;76206;39.770;2.710;2024-03-25T14:15:09;99731.31;;;18.35;42.42
85760;BME280;76206;39.770;2.710;2024-03-25T14:17:35;99728.68;;;18.28;42.06
85760;BME280;76206;39.770;2.710;2024-03-25T14:20:01;99725.52;;;18.20;42.49
85760;BME280;76206;39.770;2.710;2024-03-25T14:22:27;99718.27;;;18.13;42.39
85760;BME280;76206;39.770;2.710;2024-03-25T14:24:53;99709.89;;;18.06;42.45
85760;BME280;76206;39.770;2.710;2024-03-25T14:27:23;99711.08;;;17.99;42.88
85760;BME280;76206;39.770;2.710;2024-03-25T14:29:49;99708.46;;;17.95;43.42
85760;BME280;76206;39.770;2.710;2024-03-25T14:32:14;99709.00;;;17.96;43.78
85760;BME280;76206;39.770;2.710;2024-03-25T14:34:40;99701.23;;;17.98;43.43
85760;BME280;76206;39.770;2.710;2024-03-25T14:37:06;99697.83;;;17.97;43.22
85760;BME280;76206;39.770;2.710;2024-03-25T14:39:31;99691.20;;;17.93;43.21
85760;BME280;76206;39.770;2.710;2024-03-25T14:41:57;99684.83;;;17.89;43.75
85760;BME280;76206;39.770;2.710;2024-03-25T14:44:22;99681.30;;;17.89;43.10
85760;BME280;76206;39.770;2.710;2024-03-25T14:46:48;99678.94;;;17.88;43.39
85760;BME280;76206;39.770;2.710;2024-03-25T14:49:14;99678.77;;;17.86;43.53
85760;BME280;76206;39.770;2.710;2024-03-25T14:51:39;99672.18;;;17.82;43.49
85760;BME280;76206;39.770;2.710;2024-03-25T14:54:06;99670.31;;;17.80;43.70
85760;BME280;76206;39.770;2.710;2024-03-25T14:56:32;99667.52;;;17.80;44.29
85760;BME280;76206;39.770;2.710;2024-03-25T14:58:57;99667.52;;;17.80;44.86
85760;BME280;76206;39.770;2.710;2024-03-25T15:01:24;99665.00;;;17.85;44.77
85760;BME280;76206;39.770;2.710;2024-03-25T15:03:49;99665.59;;;17.92;44.87
85760;BME280;76206;39.770;2.710;2024-03-25T15:06:15;99664.27;;;18.01;44.85
85760;BME280;76206;39.770;2.710;2024-03-25T15:08:40;99667.30;;;18.12;44.93
85760;BME280;76206;39.770;2.710;2024-03-25T15:11:07;99664.01;;;18.22;44.70
85760;BME280;76206;39.770;2.710;2024-03-25T15:13:33;99662.69;;;18.32;44.57
85760;BME280;76206;39.770;2.710;2024-03-25T15:16:03;99658.80;;;18.42;44.57
85760;BME280;76206;39.770;2.710;2024-03-25T15:18:29;99658.72;;;18.53;44.50
85760;BME280;76206;39.770;2.710;2024-03-25T15:21:01;99652.73;;;18.61;44.40
85760;BME280;76206;39.770;2.710;2024-03-25T15:23:27;99646.73;;;18.71;44.12
85760;BME280;76206;39.770;2.710;2024-03-25T15:25:52;99645.51;;;18.79;44.01
85760;BME280;76206;39.770;2.710;2024-03-25T15:28:19;99644.08;;;18.86;44.05
85760;BME280;76206;39.770;2.710;2024-03-25T15:30:46;99637.45;;;18.93;43.88
85760;BME280;76206;39.770;2.710;2024-03-25T15:33:12;99630.25;;;19.00;43.63
85760;BME280;76206;39.770;2.710;2024-03-25T15:35:37;99626.91;;;19.07;43.65
85760;BME280;76206;39.770;2.710;2024-03-25T15:38:03;99626.30;;;19.12;43.65
85760;BME280;76206;39.770;2.710;2024-03-25T15:40:28;99622.78;;;19.15;43.52
85760;BME280;76206;39.770;2.710;2024-03-25T15:42:54;99617.13;;;19.18;43.48
85760;BME280;76206;39.770;2.710;2024-03-25T15:45:20;99614.82;;;19.21;43.42
85760;BME280;76206;39.770;2.710;2024-03-25T15:47:45;99616.09;;;19.24;43.42
85760;BME280;76206;39.770;2.710;2024-03-25T15:50:11;99614.88;;;19.27;43.36
85760;BME280;76206;39.770;2.710;2024-03-25T15:52:36;99611.70;;;19.29;43.58
85760;BME280;76206;39.770;2.710;2024-03-25T15:55:02;99603.41;;;19.32;43.35
85760;BME280;76206;39.770;2.710;2024-03-25T15:57:28;99594.96;;;19.35;43.35
85760;BME280;76206;39.770;2.710;2024-03-25T15:59:53;99583.58;;;19.38;43.05
85760;BME280;76206;39.770;2.710;2024-03-25T16:02:19;99579.69;;;19.39;43.10
85760;BME280;76206;39.770;2.710;2024-03-25T16:04:44;99575.39;;;19.41;43.29
85760;BME280;76206;39.770;2.710;2024-03-25T16:07:10;99573.40;;;19.45;43.10
85760;BME280;76206;39.770;2.710;2024-03-25T16:09:35;99563.11;;;19.48;43.00
85760;BME280;76206;39.770;2.710;2024-03-25T16:12:01;99557.50;;;19.51;42.93
85760;BME280;76206;39.770;2.710;2024-03-25T16:14:33;99552.56;;;19.55;42.98
85760;BME280;76206;39.770;2.710;2024-03-25T16:16:58;99549.55;;;19.59;42.86
85760;BME280;76206;39.770;2.710;2024-03-25T16:19:24;99540.64;;;19.63;42.85
85760;BME280;76206;39.770;2.710;2024-03-25T16:21:50;99535.68;;;19.67;42.92
85760;BME280;76206;39.770;2.710;2024-03-25T16:24:15;99533.19;;;19.72;42.79
85760;BME280;76206;39.770;2.710;2024-03-25T16:26:41;99531.80;;;19.75;42.71
85760;BME280;76206;39.770;2.710;2024-03-25T16:29:06;99529.90;;;19.77;42.60
85760;BME280;76206;39.770;2.710;2024-03-25T16:31:32;99528.53;;;19.80;42.75
85760;BME280;76206;39.770;2.710;2024-03-25T16:33:57;99530.84;;;19.83;42.67
85760;BME280;76206;39.770;2.710;2024-03-25T16:36:24;99531.30;;;19.83;42.73
85760;BME280;76206;39.770;2.710;2024-03-25T16:38:49;99528.88;;;19.84;42.63
85760;BME280;76206;39.770;2.710;2024-03-25T16:41:15;99529.92;;;19.84;42.78
85760;BME280;76206;39.770;2.710;2024-03-25T16:43:41;99533.48;;;19.84;42.81
85760;BME280;76206;39.770;2.710;2024-03-25T16:46:06;99538.26;;;19.86;42.86
85760;BME280;76206;39.770;2.710;2024-03-25T16:48:32;99537.42;;;19.87;42.92
85760;BME280;76206;39.770;2.710;2024-03-25T16:50:57;99533.15;;;19.87;43.27
85760;BME280;76206;39.770;2.710;2024-03-25T16:53:22;99528.23;;;19.87;43.42
85760;BME280;76206;39.770;2.710;2024-03-25T16:55:51;99533.82;;;19.86;43.75
85760;BME280;76206;39.770;2.710;2024-03-25T16:58:19;99532.79;;;19.84;43.84
85760;BME280;76206;39.770;2.710;2024-03-25T17:00:45;99532.41;;;19.81;44.02
85760;BME280;76206;39.770;2.710;2024-03-25T17:03:10;99531.05;;;19.78;44.11
85760;BME280;76206;39.770;2.710;2024-03-25T17:05:36;99530.20;;;19.75;44.29
85760;BME280;76206;39.770;2.710;2024-03-25T17:08:01;99533.91;;;19.72;44.30
85760;BME280;76206;39.770;2.710;2024-03-25T17:10:30;99533.14;;;19.69;44.27
85760;BME280;76206;39.770;2.710;2024-03-25T17:12:56;99540.47;;;19.66;44.30
85760;BME280;76206;39.770;2.710;2024-03-25T17:15:21;99535.52;;;19.63;44.33
85760;BME280;76206;39.770;2.710;2024-03-25T17:17:47;99536.67;;;19.60;44.43
85760;BME280;76206;39.770;2.710;2024-03-25T17:20:12;99538.84;;;19.57;44.63
85760;BME280;76206;39.770;2.710;2024-03-25T17:22:38;99534.25;;;19.54;44.86
85760;BME280;76206;39.770;2.710;2024-03-25T17:25:04;99533.75;;;19.52;44.90
85760;BME280;76206;39.770;2.710;2024-03-25T17:27:30;99530.10;;;19.50;44.88
85760;BME280;76206;39.770;2.710;2024-03-25T17:29:55;99530.17;;;19.48;45.01
85760;BME280;76206;39.770;2.710;2024-03-25T17:32:21;99532.12;;;19.47;45.14
85760;BME280;76206;39.770;2.710;2024-03-25T17:34:46;99527.77;;;19.45;45.22
85760;BME280;76206;39.770;2.710;2024-03-25T17:37:12;99526.45;;;19.44;45.33
85760;BME280;76206;39.770;2.710;2024-03-25T17:39:38;99528.38;;;19.43;45.33
85760;BME280;76206;39.770;2.710;2024-03-25T17:42:04;99530.55;;;19.41;45.48
85760;BME280;76206;39.770;2.710;2024-03-25T17:44:30;99528.40;;;19.39;45.43
